createdAt,value
2018-05-17T00:01:37.899Z,94.20
2018-05-17T00:04:05.449Z,94.20
2018-05-17T00:06:33.443Z,94.20
2018-05-17T00:09:01.105Z,94.20
2018-05-17T00:11:28.645Z,94.20
2018-05-17T00:13:56.156Z,94.10
2018-05-17T00:16:23.685Z,94.20
2018-05-17T00:18:51.209Z,94.20
2018-05-17T00:21:18.768Z,94.30
2018-05-17T00:23:46.393Z,94.30
2018-05-17T00:26:13.925Z,94.40
2018-05-17T00:28:41.445Z,94.50
2018-05-17T00:31:09.009Z,94.50
2018-05-17T00:33:36.529Z,94.60
2018-05-17T00:36:04.061Z,94.70
2018-05-17T00:38:31.577Z,94.70
2018-05-17T00:40:59.112Z,94.80
2018-05-17T00:43:26.636Z,94.80
2018-05-17T00:45:54.203Z,94.80
2018-05-17T00:48:22.152Z,94.80
2018-05-17T00:50:49.861Z,94.80
2018-05-17T00:53:29.358Z,94.80
2018-05-17T00:55:56.896Z,94.80
2018-05-17T00:58:24.525Z,94.90
2018-05-17T01:00:52.049Z,94.90
2018-05-17T01:03:19.629Z,94.80
2018-05-17T01:05:47.134Z,94.90
2018-05-17T01:08:14.905Z,94.90
2018-05-17T01:10:42.419Z,95.00
2018-05-17T01:13:10.058Z,95.00
2018-05-17T01:15:37.681Z,95.00
2018-05-17T01:18:05.477Z,95.00
2018-05-17T01:20:33.000Z,95.10
2018-05-17T01:23:00.933Z,95.10
2018-05-17T01:25:28.633Z,95.10
2018-05-17T01:27:56.949Z,95.10
2018-05-17T01:30:24.473Z,95.10
2018-05-17T01:32:52.022Z,95.00
2018-05-17T01:35:19.548Z,95.00
2018-05-17T01:37:58.892Z,95.00
2018-05-17T01:40:26.417Z,94.90
2018-05-17T01:42:53.992Z,94.80
2018-05-17T01:45:21.503Z,94.70
2018-05-17T01:47:49.165Z,94.70
2018-05-17T01:50:16.689Z,94.80
2018-05-17T01:52:44.624Z,94.60
2018-05-17T01:55:12.250Z,94.60
2018-05-17T01:57:39.799Z,94.50
2018-05-17T02:00:07.309Z,94.60
2018-05-17T02:02:35.269Z,94.30
2018-05-17T02:05:02.787Z,94.30
2018-05-17T02:07:30.341Z,94.40
2018-05-17T02:09:57.854Z,94.50
2018-05-17T02:12:25.413Z,94.40
2018-05-17T02:14:53.408Z,94.40
2018-05-17T02:17:20.943Z,94.40
2018-05-17T02:19:48.449Z,94.50
2018-05-17T02:22:15.986Z,94.40
2018-05-17T02:24:43.500Z,94.40
2018-05-17T02:27:11.401Z,94.30
2018-05-17T02:29:38.944Z,94.40
2018-05-17T02:32:36.937Z,94.40
2018-05-17T02:35:04.447Z,94.40
2018-05-17T02:37:32.009Z,94.40
2018-05-17T02:39:59.512Z,94.40
2018-05-17T02:42:27.054Z,94.30
2018-05-17T02:44:54.559Z,94.30
2018-05-17T02:47:22.066Z,94.30
2018-05-17T02:49:49.604Z,94.30
2018-05-17T02:52:17.176Z,94.50
2018-05-17T02:54:44.718Z,94.50
2018-05-17T02:57:12.217Z,94.40
2018-05-17T02:59:39.749Z,94.40
2018-05-17T03:02:07.241Z,94.30
2018-05-17T03:04:35.253Z,94.30
2018-05-17T03:07:02.806Z,94.30
2018-05-17T03:09:30.325Z,94.20
2018-05-17T03:11:58.042Z,94.30
2018-05-17T03:14:25.601Z,94.30
2018-05-17T03:16:53.110Z,94.30
2018-05-17T03:19:21.049Z,94.50
2018-05-17T03:21:48.740Z,94.50
2018-05-17T03:24:16.414Z,94.80
2018-05-17T03:26:43.924Z,94.70
2018-05-17T03:29:11.461Z,94.80
2018-05-17T03:31:38.985Z,94.80
2018-05-17T03:34:06.528Z,94.80
2018-05-17T03:36:34.037Z,94.80
2018-05-17T03:39:01.590Z,94.90
2018-05-17T03:41:29.094Z,94.90
2018-05-17T03:43:56.641Z,94.80
2018-05-17T03:46:24.146Z,94.80
2018-05-17T03:48:51.976Z,94.80
2018-05-17T03:51:19.488Z,94.80
2018-05-17T03:53:47.430Z,94.70
2018-05-17T03:56:14.925Z,94.70
2018-05-17T03:58:42.471Z,94.60
2018-05-17T04:01:22.252Z,94.60
2018-05-17T04:04:01.570Z,94.60
2018-05-17T04:06:42.337Z,94.70
2018-05-17T04:09:09.897Z,94.70
2018-05-17T04:11:37.421Z,94.70
2018-05-17T04:14:06.069Z,94.60
2018-05-17T04:16:33.706Z,94.50
2018-05-17T04:19:01.261Z,94.60
2018-05-17T04:21:28.780Z,94.50
2018-05-17T04:23:56.345Z,94.50
2018-05-17T04:26:24.244Z,94.40
2018-05-17T04:28:51.779Z,94.40
2018-05-17T04:31:19.324Z,94.40
2018-05-17T04:33:47.219Z,94.20
2018-05-17T04:36:14.760Z,94.20
2018-05-17T04:38:42.280Z,94.30
2018-05-17T04:41:09.812Z,94.20
2018-05-17T04:43:37.325Z,94.20
2018-05-17T04:46:04.860Z,94.20
2018-05-17T04:48:32.755Z,93.80
2018-05-17T04:51:00.280Z,93.80
2018-05-17T04:53:27.787Z,93.70
2018-05-17T04:55:55.330Z,93.60
2018-05-17T04:58:22.879Z,93.70
2018-05-17T05:00:50.420Z,93.50
2018-05-17T05:03:17.936Z,93.30
2018-05-17T05:05:45.464Z,93.10
2018-05-17T05:08:12.971Z,93.00
2018-05-17T05:10:40.905Z,93.00
2018-05-17T05:13:08.420Z,93.00
2018-05-17T05:15:35.966Z,92.80
2018-05-17T05:18:03.473Z,92.90
2018-05-17T05:20:31.031Z,92.60
2018-05-17T05:22:58.533Z,92.30
2018-05-17T05:25:26.073Z,92.30
2018-05-17T05:27:53.581Z,92.50
2018-05-17T05:30:21.214Z,92.50
2018-05-17T05:32:48.855Z,92.20
2018-05-17T05:35:16.396Z,92.00
2018-05-17T05:37:44.297Z,91.20
2018-05-17T05:40:11.845Z,91.20
2018-05-17T05:42:39.361Z,91.10
2018-05-17T05:45:07.314Z,90.40
2018-05-17T05:47:34.831Z,89.70
2018-05-17T05:50:02.490Z,88.80
2018-05-17T05:52:30.120Z,88.50
2018-05-17T05:54:57.653Z,88.40
2018-05-17T05:57:25.562Z,89.10
2018-05-17T05:59:53.101Z,89.10
2018-05-17T06:02:20.645Z,89.50
2018-05-17T06:04:48.151Z,89.70
2018-05-17T06:07:15.683Z,89.90
2018-05-17T06:09:43.190Z,90.10
2018-05-17T06:12:10.731Z,90.60
2018-05-17T06:14:38.255Z,90.70
2018-05-17T06:17:05.788Z,91.00
2018-05-17T06:19:33.330Z,90.90
2018-05-17T06:22:00.866Z,90.90
2018-05-17T06:24:28.378Z,91.10
2018-05-17T06:26:55.938Z,90.10
2018-05-17T06:29:23.454Z,83.30
2018-05-17T06:31:51.453Z,79.00
2018-05-17T06:34:18.969Z,79.00
2018-05-17T06:36:46.908Z,77.10
2018-05-17T06:39:14.409Z,77.10
2018-05-17T06:41:42.025Z,78.20
2018-05-17T06:44:09.761Z,79.10
2018-05-17T06:46:37.313Z,80.50
2018-05-17T06:49:04.843Z,80.80
2018-05-17T06:51:32.513Z,82.00
2018-05-17T06:54:00.173Z,78.10
2018-05-17T06:56:27.721Z,76.60
2018-05-17T06:58:55.289Z,77.20
2018-05-17T07:01:22.852Z,74.40
2018-05-17T07:03:50.373Z,73.00
2018-05-17T07:06:17.900Z,71.00
2018-05-17T07:08:45.415Z,71.50
2018-05-17T07:11:12.984Z,72.00
2018-05-17T07:13:40.480Z,69.10
2018-05-17T07:16:08.476Z,68.80
2018-05-17T07:18:36.244Z,68.80
2018-05-17T07:21:03.944Z,71.00
2018-05-17T07:23:31.454Z,71.00
2018-05-17T07:25:58.997Z,72.50
2018-05-17T07:28:26.986Z,72.70
2018-05-17T07:30:54.525Z,72.70
2018-05-17T07:33:22.025Z,73.10
2018-05-17T07:35:49.576Z,72.80
2018-05-17T07:38:17.208Z,74.30
2018-05-17T07:40:44.730Z,75.60
2018-05-17T07:43:12.661Z,77.60
2018-05-17T07:45:40.157Z,77.60
2018-05-17T07:48:07.859Z,75.80
2018-05-17T07:50:35.377Z,74.20
2018-05-17T07:53:03.316Z,71.20
2018-05-17T07:55:30.914Z,71.20
2018-05-17T07:57:58.397Z,69.00
2018-05-17T08:00:25.925Z,69.50
2018-05-17T08:02:53.470Z,70.10
2018-05-17T08:05:20.976Z,73.00
2018-05-17T08:07:48.566Z,73.80
2018-05-17T08:10:16.472Z,75.70
2018-05-17T08:12:44.234Z,75.70
2018-05-17T08:15:11.753Z,76.60
2018-05-17T08:17:39.698Z,79.00
2018-05-17T08:20:07.215Z,79.00
2018-05-17T08:22:34.733Z,78.50
2018-05-17T08:25:02.638Z,79.40
2018-05-17T08:27:30.200Z,79.40
2018-05-17T08:29:57.712Z,79.20
2018-05-17T08:32:25.340Z,78.10
2018-05-17T08:34:52.850Z,78.00
2018-05-17T08:37:20.392Z,76.70
2018-05-17T08:39:47.901Z,75.20
2018-05-17T08:42:15.530Z,74.80
2018-05-17T08:44:43.193Z,75.50
2018-05-17T08:47:10.741Z,76.60
2018-05-17T08:49:38.246Z,77.60
2018-05-17T08:52:05.801Z,78.50
2018-05-17T08:54:33.314Z,78.90
2018-05-17T08:57:00.871Z,79.10
2018-05-17T08:59:28.382Z,79.60
2018-05-17T09:01:56.312Z,80.30
2018-05-17T09:04:23.838Z,80.30
2018-05-17T09:06:51.369Z,80.90
2018-05-17T09:09:18.964Z,80.10
2018-05-17T09:11:46.487Z,79.90
2018-05-17T09:14:14.043Z,80.30
2018-05-17T09:16:41.557Z,80.40
2018-05-17T09:19:09.175Z,81.20
2018-05-17T09:21:36.674Z,80.40
2018-05-17T09:24:04.206Z,80.50
2018-05-17T09:26:31.756Z,80.50
2018-05-17T09:28:59.289Z,81.10
2018-05-17T09:31:26.841Z,81.00
2018-05-17T09:33:54.577Z,80.90
2018-05-17T09:36:22.479Z,81.70
2018-05-17T09:38:50.034Z,81.70
2018-05-17T09:41:17.646Z,82.10
2018-05-17T09:43:45.114Z,82.00
2018-05-17T09:46:12.628Z,83.30
2018-05-17T09:48:40.173Z,83.90
2018-05-17T09:51:07.930Z,84.40
2018-05-17T09:53:35.471Z,84.90
2018-05-17T09:56:02.986Z,85.60
2018-05-17T09:58:30.788Z,85.90
2018-05-17T10:00:58.301Z,86.70
2018-05-17T10:03:25.835Z,87.00
2018-05-17T10:05:53.335Z,87.40
2018-05-17T10:08:20.886Z,87.40
2018-05-17T10:10:48.600Z,86.70
2018-05-17T10:13:16.148Z,87.30
2018-05-17T10:15:43.655Z,87.00
2018-05-17T10:18:11.192Z,86.90
2018-05-17T10:20:38.693Z,86.60
2018-05-17T10:23:06.510Z,86.20
2018-05-17T10:25:33.986Z,86.20
2018-05-17T10:28:01.917Z,84.60
2018-05-17T10:30:29.435Z,84.60
2018-05-17T10:32:56.972Z,80.50
2018-05-17T10:35:24.493Z,79.40
2018-05-17T10:37:52.049Z,78.60
2018-05-17T10:40:19.573Z,78.10
2018-05-17T10:42:47.102Z,78.10
2018-05-17T10:45:17.262Z,78.90
2018-05-17T10:47:44.785Z,79.50
2018-05-17T10:50:12.345Z,80.20
2018-05-17T10:52:39.968Z,79.70
2018-05-17T10:55:07.499Z,79.90
2018-05-17T10:57:35.012Z,80.10
2018-05-17T11:00:02.544Z,80.60
2018-05-17T11:02:30.113Z,81.50
2018-05-17T11:04:57.596Z,82.40
2018-05-17T11:07:25.113Z,83.20
2018-05-17T11:09:52.788Z,83.40
2018-05-17T11:12:20.541Z,84.00
2018-05-17T11:14:48.042Z,84.40
2018-05-17T11:17:15.537Z,84.40
2018-05-17T11:19:43.098Z,83.80
2018-05-17T11:22:10.685Z,83.70
2018-05-17T11:24:38.222Z,83.30
2018-05-17T11:27:05.790Z,82.90
2018-05-17T11:29:33.449Z,83.30
2018-05-17T11:32:00.957Z,82.10
2018-05-17T11:34:28.561Z,81.00
2018-05-17T11:36:56.078Z,80.40
2018-05-17T11:39:24.019Z,81.20
2018-05-17T11:41:51.558Z,81.20
2018-05-17T11:44:19.097Z,80.50
2018-05-17T11:46:46.619Z,81.00
2018-05-17T11:49:14.157Z,81.90
2018-05-17T11:51:41.675Z,80.30
2018-05-17T11:54:09.206Z,80.50
2018-05-17T11:56:36.863Z,79.40
2018-05-17T11:59:04.525Z,78.90
2018-05-17T12:01:32.045Z,79.50
2018-05-17T12:04:00.003Z,80.60
2018-05-17T12:06:27.516Z,80.60
2018-05-17T12:08:55.061Z,81.50
2018-05-17T12:11:22.582Z,81.20
2018-05-17T12:13:50.092Z,81.40
2018-05-17T12:16:17.681Z,81.90
2018-05-17T12:18:45.194Z,82.90
2018-05-17T12:21:12.751Z,82.80
2018-05-17T12:23:40.263Z,82.60
2018-05-17T12:26:07.801Z,81.80
2018-05-17T12:28:35.313Z,81.30
2018-05-17T12:31:02.850Z,81.20
2018-05-17T12:33:30.528Z,80.80
2018-05-17T12:35:58.083Z,81.20
2018-05-17T12:38:25.604Z,81.70
2018-05-17T12:40:53.297Z,80.30
2018-05-17T12:43:20.807Z,80.90
2018-05-17T12:45:48.353Z,81.00
2018-05-17T12:48:15.860Z,80.90
2018-05-17T12:50:43.401Z,81.20
2018-05-17T12:53:10.978Z,81.40
2018-05-17T12:55:38.642Z,81.20
2018-05-17T12:58:06.281Z,81.80
2018-05-17T13:00:33.838Z,82.70
2018-05-17T13:03:01.345Z,83.30
2018-05-17T13:05:28.884Z,84.30
2018-05-17T13:07:56.392Z,84.90
2018-05-17T13:10:24.324Z,86.80
2018-05-17T13:12:52.026Z,86.80
2018-05-17T13:15:19.590Z,87.60
2018-05-17T13:17:47.106Z,87.60
2018-05-17T13:20:14.714Z,88.20
2018-05-17T13:22:42.468Z,88.50
2018-05-17T13:25:10.025Z,88.50
2018-05-17T13:27:37.582Z,88.90
2018-05-17T13:30:05.140Z,88.30
2018-05-17T13:32:32.640Z,88.50
2018-05-17T13:35:00.173Z,87.60
2018-05-17T13:37:27.751Z,87.20
2018-05-17T13:39:55.240Z,87.10
2018-05-17T13:42:22.745Z,87.10
2018-05-17T13:44:50.293Z,87.10
2018-05-17T13:47:17.795Z,87.30
2018-05-17T13:49:45.344Z,87.50
2018-05-17T13:52:12.838Z,88.10
2018-05-17T13:54:40.505Z,88.00
2018-05-17T13:57:08.037Z,88.20
2018-05-17T13:59:35.567Z,88.30
2018-05-17T14:02:03.117Z,88.50
2018-05-17T14:04:30.645Z,88.60
2018-05-17T14:06:58.194Z,88.20
2018-05-17T14:09:25.715Z,87.80
2018-05-17T14:11:53.252Z,87.60
2018-05-17T14:14:21.156Z,87.30
2018-05-17T14:16:48.712Z,87.30
2018-05-17T14:19:16.235Z,87.40
2018-05-17T14:21:44.168Z,86.70
2018-05-17T14:24:11.688Z,86.70
2018-05-17T14:26:39.366Z,86.70
2018-05-17T14:29:06.880Z,86.50
2018-05-17T14:31:34.404Z,86.90
2018-05-17T14:34:01.909Z,87.30
2018-05-17T14:36:29.465Z,87.50
2018-05-17T14:38:56.986Z,88.10
2018-05-17T14:41:24.518Z,88.50
2018-05-17T14:43:52.349Z,88.90
2018-05-17T14:46:19.936Z,89.20
2018-05-17T14:48:47.457Z,88.90
2018-05-17T14:51:14.985Z,88.80
2018-05-17T14:53:42.589Z,89.00
2018-05-17T14:56:10.148Z,89.60
2018-05-17T14:58:37.664Z,89.90
2018-05-17T15:01:05.198Z,89.80
2018-05-17T15:03:33.096Z,90.10
2018-05-17T15:06:00.629Z,90.10
2018-05-17T15:08:28.215Z,90.10
2018-05-17T15:10:55.692Z,90.10
2018-05-17T15:13:23.200Z,90.00
2018-05-17T15:15:50.760Z,90.00
2018-05-17T15:18:18.272Z,90.00
2018-05-17T15:20:45.775Z,89.80
2018-05-17T15:23:13.310Z,89.60
2018-05-17T15:25:41.201Z,89.90
2018-05-17T15:28:08.737Z,89.90
2018-05-17T15:30:36.259Z,90.00
2018-05-17T15:33:03.879Z,90.10
2018-05-17T15:35:31.405Z,90.00
2018-05-17T15:37:59.344Z,89.90
2018-05-17T15:40:26.858Z,89.90
2018-05-17T15:42:54.752Z,89.40
2018-05-17T15:45:22.293Z,89.70
2018-05-17T15:47:50.865Z,89.70
2018-05-17T15:50:18.525Z,89.50
2018-05-17T15:52:46.172Z,89.10
2018-05-17T15:55:13.853Z,88.80
2018-05-17T15:57:41.384Z,89.10
2018-05-17T16:00:08.880Z,89.20
2018-05-17T16:02:36.428Z,89.40
2018-05-17T16:05:03.951Z,89.70
2018-05-17T16:07:31.481Z,89.80
2018-05-17T16:09:59.001Z,90.00
2018-05-17T16:12:26.560Z,90.10
2018-05-17T16:14:54.146Z,90.20
2018-05-17T16:17:21.645Z,90.50
2018-05-17T16:19:49.165Z,90.70
2018-05-17T16:22:16.705Z,90.80
2018-05-17T16:24:44.632Z,90.90
2018-05-17T16:27:12.232Z,90.90
2018-05-17T16:29:39.918Z,91.00
2018-05-17T16:32:07.487Z,90.90
2018-05-17T16:34:35.092Z,91.10
2018-05-17T16:37:02.638Z,91.00
2018-05-17T16:39:30.169Z,91.00
2018-05-17T16:41:57.713Z,91.10
2018-05-17T16:44:25.229Z,91.10
2018-05-17T16:46:53.232Z,91.40
2018-05-17T16:49:20.788Z,91.40
2018-05-17T16:51:48.307Z,91.40
2018-05-17T16:54:16.043Z,91.50
2018-05-17T16:56:43.499Z,91.60
2018-05-17T16:59:11.049Z,91.50
2018-05-17T17:01:38.576Z,91.40
2018-05-17T17:04:06.122Z,91.40
2018-05-17T17:06:33.629Z,91.00
2018-05-17T17:09:01.161Z,90.70
2018-05-17T17:11:28.674Z,90.60
2018-05-17T17:13:56.211Z,90.40
2018-05-17T17:16:23.721Z,90.10
2018-05-17T17:18:51.249Z,90.00
2018-05-17T17:21:18.828Z,90.00
2018-05-17T17:23:46.484Z,90.10
2018-05-17T17:26:14.139Z,90.10
2018-05-17T17:28:41.667Z,90.10
2018-05-17T17:31:09.252Z,90.10
2018-05-17T17:33:36.790Z,90.40
2018-05-17T17:36:04.355Z,90.40
2018-05-17T17:38:32.012Z,90.60
2018-05-17T17:40:59.525Z,90.60
2018-05-17T17:43:27.061Z,90.70
2018-05-17T17:45:54.573Z,90.50
2018-05-17T17:48:22.248Z,90.40
2018-05-17T17:50:49.746Z,90.80
2018-05-17T17:53:17.774Z,90.80
2018-05-17T17:55:45.273Z,90.80
2018-05-17T17:58:12.829Z,90.80
2018-05-17T18:00:40.344Z,91.00
2018-05-17T18:03:07.882Z,91.00
2018-05-17T18:05:35.395Z,91.00
2018-05-17T18:08:03.111Z,91.10
2018-05-17T18:10:30.627Z,91.30
2018-05-17T18:12:58.530Z,91.50
2018-05-17T18:15:26.079Z,91.50
2018-05-17T18:17:53.604Z,91.60
2018-05-17T18:20:21.537Z,91.90
2018-05-17T18:22:49.038Z,92.00
2018-05-17T18:25:16.572Z,92.20
2018-05-17T18:27:44.577Z,92.30
2018-05-17T18:30:12.114Z,92.30
2018-05-17T18:32:39.728Z,92.10
2018-05-17T18:35:07.193Z,92.10
2018-05-17T18:37:34.710Z,92.30
2018-05-17T18:40:02.262Z,92.10
2018-05-17T18:42:29.925Z,92.20
2018-05-17T18:44:57.656Z,91.90
2018-05-17T18:47:25.112Z,92.00
2018-05-17T18:49:52.645Z,92.00
2018-05-17T18:52:20.166Z,92.10
2018-05-17T18:54:47.696Z,92.10
2018-05-17T18:57:15.200Z,92.30
2018-05-17T18:59:42.742Z,92.30
2018-05-17T19:02:10.273Z,92.30
2018-05-17T19:04:37.818Z,92.40
2018-05-17T19:07:05.477Z,92.40
2018-05-17T19:09:33.009Z,92.30
2018-05-17T19:12:00.521Z,92.30
2018-05-17T19:14:28.078Z,92.40
2018-05-17T19:16:55.598Z,92.50
2018-05-17T19:19:23.146Z,92.40
2018-05-17T19:21:50.676Z,92.40
2018-05-17T19:24:18.597Z,92.40
2018-05-17T19:26:46.107Z,92.30
2018-05-17T19:29:13.642Z,92.30
2018-05-17T19:31:41.305Z,92.30
2018-05-17T19:34:08.798Z,92.30
2018-05-17T19:36:36.359Z,92.40
2018-05-17T19:39:03.904Z,92.40
2018-05-17T19:41:31.414Z,92.60
2018-05-17T19:43:58.965Z,92.70
2018-05-17T19:46:26.492Z,92.70
2018-05-17T19:48:54.020Z,92.70
2018-05-17T19:51:21.648Z,92.70
2018-05-17T19:53:49.161Z,92.60
2018-05-17T19:56:16.695Z,92.70
2018-05-17T19:58:44.205Z,92.60
2018-05-17T20:01:11.753Z,92.70
2018-05-17T20:03:39.383Z,92.80
2018-05-17T20:06:06.925Z,92.90
2018-05-17T20:08:34.433Z,92.80
2018-05-17T20:11:02.133Z,92.70
2018-05-17T20:13:29.661Z,92.80
2018-05-17T20:15:57.585Z,92.70
2018-05-17T20:18:25.092Z,92.80
2018-05-17T20:20:52.623Z,92.80
2018-05-17T20:23:20.133Z,92.90
2018-05-17T20:25:47.678Z,92.90
2018-05-17T20:28:15.252Z,92.90
2018-05-17T20:30:43.151Z,93.00
2018-05-17T20:33:10.648Z,93.00
2018-05-17T20:35:38.202Z,93.10
2018-05-17T20:38:05.758Z,93.30
2018-05-17T20:40:33.284Z,93.40
2018-05-17T20:43:00.790Z,93.50
2018-05-17T20:45:28.333Z,93.60
2018-05-17T20:47:55.840Z,93.70
2018-05-17T20:50:23.400Z,93.70
2018-05-17T20:52:50.916Z,93.80
2018-05-17T20:55:18.641Z,93.80
2018-05-17T20:57:46.213Z,93.90
2018-05-17T21:00:13.731Z,94.00
2018-05-17T21:02:41.337Z,94.00
2018-05-17T21:05:08.848Z,94.00
2018-05-17T21:07:36.385Z,94.10
2018-05-17T21:10:03.892Z,94.10
2018-05-17T21:12:31.438Z,94.10
2018-05-17T21:14:59.341Z,94.10
2018-05-17T21:17:26.933Z,94.10
2018-05-17T21:19:54.447Z,94.10
2018-05-17T21:22:21.979Z,94.00
2018-05-17T21:24:49.499Z,94.10
2018-05-17T21:27:17.040Z,94.10
2018-05-17T21:29:44.563Z,94.00
2018-05-17T21:32:12.108Z,94.00
2018-05-17T21:34:39.621Z,94.10
2018-05-17T21:37:07.164Z,94.10
2018-05-17T21:39:34.800Z,94.20
2018-05-17T21:42:02.463Z,94.30
2018-05-17T21:44:30.015Z,94.20
2018-05-17T21:46:57.769Z,94.30
2018-05-17T21:49:25.425Z,94.30
2018-05-17T21:51:52.976Z,94.30
2018-05-17T21:54:20.484Z,94.30
2018-05-17T21:56:48.020Z,94.20
2018-05-17T21:59:15.541Z,94.20
2018-05-17T22:01:43.105Z,94.30
2018-05-17T22:04:10.766Z,94.30
2018-05-17T22:06:38.321Z,94.20
2018-05-17T22:09:05.839Z,94.20
2018-05-17T22:11:33.533Z,94.20
2018-05-17T22:14:01.058Z,94.30
2018-05-17T22:16:28.975Z,94.20
2018-05-17T22:18:56.705Z,94.20
2018-05-17T22:21:24.376Z,94.20
2018-05-17T22:23:51.915Z,94.20
2018-05-17T22:26:19.437Z,94.10
2018-05-17T22:28:46.980Z,94.00
2018-05-17T22:31:14.494Z,94.20
2018-05-17T22:33:42.055Z,94.20
2018-05-17T22:36:09.577Z,94.30
2018-05-17T22:38:37.528Z,94.30
2018-05-17T22:41:05.057Z,94.30
2018-05-17T22:43:32.595Z,94.40
2018-05-17T22:46:00.134Z,94.40
2018-05-17T22:48:27.793Z,94.30
2018-05-17T22:50:55.309Z,94.40
2018-05-17T22:53:22.854Z,94.50
2018-05-17T22:55:50.366Z,94.50
2018-05-17T22:58:29.702Z,94.40
2018-05-17T23:00:57.217Z,94.40
2018-05-17T23:03:25.154Z,94.30
2018-05-17T23:05:52.652Z,94.30
2018-05-17T23:08:20.205Z,94.30
2018-05-17T23:10:48.109Z,94.10
2018-05-17T23:13:15.641Z,94.10
2018-05-17T23:15:43.157Z,94.10
2018-05-17T23:18:10.704Z,94.10
2018-05-17T23:20:38.234Z,94.10
2018-05-17T23:23:05.795Z,94.20
2018-05-17T23:25:33.305Z,94.30
2018-05-17T23:28:01.193Z,94.10
2018-05-17T23:30:28.859Z,94.20
2018-05-17T23:32:56.520Z,94.10
2018-05-17T23:35:24.156Z,94.20
2018-05-17T23:37:51.674Z,94.20
2018-05-17T23:40:30.939Z,94.20
2018-05-17T23:42:58.473Z,94.20
2018-05-17T23:45:26.409Z,94.30
2018-05-17T23:47:53.927Z,94.30
2018-05-17T23:50:21.487Z,94.40
2018-05-17T23:52:48.990Z,94.40
2018-05-17T23:55:16.532Z,94.40
2018-05-17T23:57:44.170Z,94.60
